Terminal Aerodrome Forecast
Issued by NWS St Louis, MO

Home | Current Version | Previous Version | Text Only | Print | Product List | Glossary On
Versions: 1 2 3 4 5 6 7 8 9 10 11 12 13 14 15 16 17 18 19 20 21 22 23 24 25 26 27
000
FTUS43 KLSX 132300
TAFSTL
TAF
KSTL 132337Z 1400/1506 18017G27KT 6SM -SHRA VCTS OVC040CB
     FM140300 20015G25KT 5SM -SHRA VCTS OVC030CB
      TEMPO 1403/1405 VRB20G35KT 2SM TSRA OVC015CB
     FM140700 27016G26KT P6SM OVC015
     FM141000 30015G25KT P6SM OVC010
     FM141600 34016G26KT P6SM OVC015
      TEMPO 1419/1423 5SM -RA
     FM150000 33014KT P6SM OVC020=

USA.gov is the U.S. government's official web portal to all federal, state and local government web resources and services.